Time;durP1;ratioP1;P1;durP2;ratioP2;P2;SDS_P1;SDS_P2;PMS_P1;PMS_P2;Temp;Humidity;BMP_temperature;BMP_pressure;BME280_temperature;BME280_humidity;BME280_pressure;Samples;Min_cycle;Max_cycle;Signal;HPM_P1;HPM_P2
2022/11/01 00:07:41;;;;;;;9.45;7.60;;;16.70;74.20;;;;;;21082224;28;20087;-58
2022/11/01 00:17:43;;;;;;;13.25;7.53;;;16.70;74.10;;;;;;21081334;28;20048;-60
2022/11/01 00:27:44;;;;;;;9.65;7.05;;;16.70;73.80;;;;;;21080823;28;20492;-56
2022/11/01 00:37:46;;;;;;;11.13;7.03;;;16.80;73.40;;;;;;21080824;28;20044;-56
2022/11/01 00:47:47;;;;;;;13.13;7.93;;;16.80;73.30;;;;;;21079775;28;20052;-60
2022/11/01 00:57:49;;;;;;;12.45;7.88;;;16.80;73.60;;;;;;21078920;28;20084;-60
2022/11/01 01:07:51;;;;;;;12.05;7.65;;;16.80;73.40;;;;;;21090318;28;20051;-61
2022/11/01 01:17:54;;;;;;;13.10;8.33;;;16.80;73.40;;;;;;21106186;28;20477;-62
2022/11/01 01:27:56;;;;;;;15.35;7.82;;;16.70;74.00;;;;;;21105856;28;20048;-58
2022/11/01 01:37:59;;;;;;;10.45;7.20;;;16.70;73.90;;;;;;21105072;28;20051;-60
2022/11/01 01:48:25;;;;;;;12.20;6.88;;;16.70;73.80;;;;;;21104930;28;20388;-58
2022/11/01 01:58:55;;;;;;;12.00;7.55;;;16.70;74.00;;;;;;21104989;28;20480;-60
2022/11/01 02:08:59;;;;;;;10.32;7.68;;;16.50;74.30;;;;;;21104214;28;20052;-60
2022/11/01 02:19:12;;;;;;;;;;;16.50;73.90;;;;;;21097747;28;20048;-57
2022/11/01 02:29:36;;;;;;;11.35;7.80;;;16.40;73.60;;;;;;21090116;28;19973;-57
2022/11/01 02:39:51;;;;;;;15.18;8.35;;;16.30;74.40;;;;;;21088719;28;20044;-56
2022/11/01 02:50:04;;;;;;;11.70;7.90;;;16.20;75.00;;;;;;21087757;28;20056;-58
2022/11/01 03:00:21;;;;;;;11.63;8.80;;;16.20;75.60;;;;;;21088014;28;20316;-57
2022/11/01 03:10:38;;;;;;;16.20;8.05;;;16.30;75.20;;;;;;21087612;28;20053;-56
2022/11/01 03:21:16;;;;;;;17.15;8.60;;;16.30;74.90;;;;;;21085896;28;20055;-60
2022/11/01 03:31:39;;;;;;;11.88;7.70;;;16.40;74.20;;;;;;21085699;28;20040;-58
2022/11/01 03:41:45;;;;;;;13.52;7.97;;;16.30;74.30;;;;;;21083738;28;20048;-59
2022/11/01 03:51:48;;;;;;;13.50;7.82;;;16.30;74.70;;;;;;21083004;28;20056;-57
2022/11/01 04:01:49;;;;;;;13.43;8.93;;;16.30;75.50;;;;;;21082416;28;20043;-57
2022/11/01 04:11:51;;;;;;;15.18;8.65;;;16.30;76.20;;;;;;21082830;28;20400;-56
2022/11/01 04:21:52;;;;;;;11.77;8.73;;;16.20;76.60;;;;;;21082243;28;20067;-60
2022/11/01 04:31:54;;;;;;;14.32;8.82;;;16.20;76.80;;;;;;21080887;28;20067;-57
2022/11/01 04:41:55;;;;;;;14.40;9.43;;;16.20;77.00;;;;;;21079655;28;20094;-56
2022/11/01 04:52:02;;;;;;;16.48;9.77;;;16.30;76.90;;;;;;21078890;28;20048;-61
2022/11/01 05:02:04;;;;;;;11.80;8.88;;;16.20;76.70;;;;;;21078921;28;20131;-55
2022/11/01 05:12:07;;;;;;;13.18;9.73;;;16.30;76.80;;;;;;21079673;28;20052;-56
2022/11/01 05:22:09;;;;;;;16.45;10.32;;;16.20;77.00;;;;;;21078995;28;20055;-56
2022/11/01 05:32:11;;;;;;;13.18;9.75;;;16.20;77.00;;;;;;21078573;28;20411;-57
2022/11/01 05:42:13;;;;;;;13.95;9.38;;;16.30;76.20;;;;;;21077573;28;20551;-58
2022/11/01 05:52:14;;;;;;;16.45;11.25;;;16.30;75.10;;;;;;21062560;28;20058;-56
2022/11/01 06:02:16;;;;;;;16.23;9.52;;;16.20;75.20;;;;;;21092778;28;20048;-56
2022/11/01 06:12:18;;;;;;;15.43;10.57;;;16.20;74.80;;;;;;21091850;28;20052;-59
2022/11/01 06:22:20;;;;;;;18.63;12.27;;;16.20;75.20;;;;;;21091724;28;20048;-58
2022/11/01 06:32:22;;;;;;;21.80;11.73;;;16.10;75.40;;;;;;21089950;28;20048;-60
2022/11/01 06:42:23;;;;;;;14.68;11.25;;;16.00;75.40;;;;;;21089309;28;20552;-58
2022/11/01 06:52:25;;;;;;;19.23;13.90;;;15.70;76.30;;;;;;21089183;28;20488;-60
2022/11/01 07:02:26;;;;;;;20.85;14.02;;;15.70;76.20;;;;;;21086604;28;20079;-59
2022/11/01 07:12:28;;;;;;;18.65;11.45;;;15.80;75.90;;;;;;21086952;28;20047;-59
2022/11/01 07:22:30;;;;;;;18.17;11.93;;;15.70;75.80;;;;;;21086583;28;20508;-58
2022/11/01 07:32:32;;;;;;;22.50;14.18;;;15.80;75.90;;;;;;21086051;28;20051;-57
2022/11/01 07:42:40;;;;;;;20.52;12.73;;;15.80;75.70;;;;;;21083642;28;20549;-58
2022/11/01 07:52:41;;;;;;;17.48;12.48;;;15.80;75.70;;;;;;21084106;28;20389;-56
2022/11/01 08:02:43;;;;;;;18.27;12.95;;;15.80;75.70;;;;;;21083531;28;20078;-59
2022/11/01 08:12:44;;;;;;;18.23;13.18;;;15.80;75.90;;;;;;21082654;28;20097;-58
2022/11/01 08:22:46;;;;;;;21.98;13.93;;;15.90;75.70;;;;;;21080582;28;20048;-54
2022/11/01 08:32:48;;;;;;;20.00;12.77;;;16.10;75.20;;;;;;21081384;28;20101;-58
2022/11/01 08:42:50;;;;;;;18.08;13.68;;;16.20;74.90;;;;;;21079537;28;20062;-62
2022/11/01 08:52:51;;;;;;;19.73;14.38;;;16.30;74.40;;;;;;21079643;28;20480;-59
2022/11/01 09:02:54;;;;;;;23.83;14.52;;;16.30;74.10;;;;;;21078890;28;20063;-61
2022/11/01 09:12:57;;;;;;;22.33;15.02;;;16.30;74.40;;;;;;21079659;28;20059;-55
2022/11/01 09:22:59;;;;;;;19.33;14.63;;;16.60;73.80;;;;;;21078374;28;20450;-61
2022/11/01 09:33:03;;;;;;;15.88;11.38;;;16.80;73.10;;;;;;21091643;28;20048;-57
2022/11/01 09:43:08;;;;;;;14.18;8.80;;;17.20;72.10;;;;;;21094410;28;20412;-58
2022/11/01 09:53:19;;;;;;;14.05;9.57;;;17.40;70.90;;;;;;21076794;28;20048;-56
2022/11/01 10:03:42;;;;;;;13.93;9.18;;;17.60;69.90;;;;;;21091298;28;20055;-56
2022/11/01 10:13:47;;;;;;;15.80;9.57;;;17.90;68.90;;;;;;21091745;28;20051;-61
2022/11/01 10:23:51;;;;;;;11.05;7.60;;;18.20;68.00;;;;;;21090899;28;20066;-58
2022/11/01 10:34:13;;;;;;;11.10;8.65;;;18.40;66.40;;;;;;21089847;28;20044;-56
2022/11/01 10:44:27;;;;;;;10.50;8.45;;;18.60;65.80;;;;;;21088495;28;20518;-59
2022/11/01 10:54:31;;;;;;;14.10;8.18;;;18.60;65.90;;;;;;21088280;28;20044;-60
2022/11/01 11:04:34;;;;;;;7.38;5.03;;;18.50;65.80;;;;;;21087365;28;20054;-58
2022/11/01 11:14:37;;;;;;;6.35;4.43;;;18.40;65.10;;;;;;21087507;28;20040;-57
2022/11/01 11:24:42;;;;;;;7.40;4.10;;;18.40;64.70;;;;;;21085638;28;20054;-56
2022/11/01 11:35:12;;;;;;;8.60;3.90;;;18.70;63.30;;;;;;21085690;28;20062;-60
2022/11/01 11:45:15;;;;;;;5.25;3.28;;;19.10;61.50;;;;;;21070820;28;20084;-59
2022/11/01 11:55:25;;;;;;;4.77;3.17;;;19.30;61.10;;;;;;21082330;28;20044;-58
2022/11/01 12:05:27;;;;;;;5.00;3.80;;;19.70;59.40;;;;;;21083006;28;20476;-59
2022/11/01 12:15:34;;;;;;;5.63;2.80;;;19.90;58.40;;;;;;21082446;28;20094;-59
2022/11/01 12:25:38;;;;;;;57.22;44.03;;;20.00;58.20;;;;;;21080650;28;20105;-61
2022/11/01 12:35:45;;;;;;;5.35;3.95;;;20.20;56.60;;;;;;21079704;28;20466;-59
2022/11/01 12:45:49;;;;;;;11.68;5.30;;;20.20;55.50;;;;;;21078735;28;20468;-60
2022/11/01 12:55:50;;;;;;;5.65;2.47;;;20.10;55.90;;;;;;21079084;28;20040;-60
2022/11/01 13:06:13;;;;;;;3.25;2.22;;;19.90;55.40;;;;;;21076385;28;20056;-57
2022/11/01 13:16:26;;;;;;;5.13;2.17;;;20.10;55.90;;;;;;21078773;28;20059;-61
2022/11/01 13:26:49;;;;;;;4.53;2.03;;;20.10;55.60;;;;;;21076968;28;20056;-60
2022/11/01 13:37:11;;;;;;;3.88;2.28;;;20.20;55.30;;;;;;21077789;28;20126;-56
2022/11/01 13:47:45;;;;;;;4.70;2.30;;;20.30;55.50;;;;;;21076202;28;20055;-60
2022/11/01 13:57:47;;;;;;;5.07;2.42;;;20.60;54.30;;;;;;21076309;28;20092;-57
2022/11/01 14:07:49;;;;;;;4.30;2.47;;;20.60;54.10;;;;;;21074985;28;20098;-56
2022/11/01 14:17:55;;;;;;;5.20;2.17;;;20.70;53.90;;;;;;21084951;28;20396;-56
2022/11/01 14:28:19;;;;;;;3.85;2.38;;;20.90;53.30;;;;;;21089428;28;20046;-62
2022/11/01 14:38:30;;;;;;;4.53;2.50;;;20.90;53.30;;;;;;20748367;28;20046;-60
2022/11/01 14:49:02;;;;;;;5.68;3.80;;;20.90;52.30;;;;;;20746969;28;20550;-57
2022/11/01 14:59:21;;;;;;;3.95;1.95;;;21.00;50.70;;;;;;20747618;28;20045;-60
2022/11/01 15:09:29;;;;;;;4.15;1.90;;;20.90;50.90;;;;;;20844317;28;20095;-59
2022/11/01 15:19:36;;;;;;;5.03;2.70;;;20.90;50.90;;;;;;21085591;28;20389;-60
2022/11/01 15:29:40;;;;;;;3.92;1.65;;;20.80;51.30;;;;;;21083951;28;20405;-61
2022/11/01 15:39:42;;;;;;;3.38;1.70;;;20.70;50.80;;;;;;21083205;28;20051;-61
2022/11/01 15:50:16;;;;;;;2.42;1.70;;;20.60;50.50;;;;;;21081487;28;20137;-56
2022/11/01 16:00:19;;;;;;;6.90;4.13;;;20.60;51.20;;;;;;20741636;28;20053;-57
2022/11/01 16:10:24;;;;;;;2.25;1.42;;;20.50;50.60;;;;;;20741115;28;20564;-56
2022/11/01 16:20:39;;;;;;;2.45;1.60;;;20.40;49.40;;;;;;20740309;28;20054;-57
2022/11/01 16:30:45;;;;;;;3.13;1.85;;;20.30;50.00;;;;;;20863599;28;20048;-59
2022/11/01 16:41:00;;;;;;;5.03;2.28;;;20.20;50.10;;;;;;21059164;28;20131;-56
2022/11/01 16:51:02;;;;;;;3.40;2.30;;;20.10;49.60;;;;;;21079501;28;20059;-59
2022/11/01 17:01:04;;;;;;;3.15;2.28;;;20.00;49.50;;;;;;21078088;28;20111;-57
2022/11/01 17:11:07;;;;;;;6.78;3.55;;;19.90;49.80;;;;;;21077949;28;20056;-61
2022/11/01 17:21:10;;;;;;;5.65;3.97;;;19.80;50.10;;;;;;21078617;28;20089;-63
2022/11/01 17:31:12;;;;;;;5.30;3.27;;;19.70;50.90;;;;;;21078255;28;20342;-58
2022/11/01 17:41:18;;;;;;;8.40;4.93;;;19.60;51.70;;;;;;21076387;28;20131;-58
2022/11/01 17:51:21;;;;;;;7.70;4.32;;;19.40;52.80;;;;;;21085106;28;20090;-58
2022/11/01 18:01:23;;;;;;;9.73;6.28;;;19.20;53.50;;;;;;21092730;28;20492;-60
2022/11/01 18:11:38;;;;;;;8.75;5.72;;;19.20;54.30;;;;;;21092732;28;20052;-58
2022/11/01 18:21:46;;;;;;;12.10;7.13;;;19.10;54.90;;;;;;21092536;28;20476;-59
2022/11/01 18:32:11;;;;;;;10.18;7.20;;;18.90;55.50;;;;;;21091749;28;20048;-56
2022/11/01 18:42:13;;;;;;;10.45;7.03;;;18.80;56.20;;;;;;20749947;28;20133;-59
2022/11/01 18:52:18;;;;;;;17.52;7.13;;;18.70;57.00;;;;;;20748464;28;20054;-55
2022/11/01 19:02:26;;;;;;;10.35;5.22;;;18.60;57.50;;;;;;20747482;28;20482;-56
2022/11/01 19:12:30;;;;;;;14.52;7.43;;;18.50;57.30;;;;;;20820167;28;20044;-60
2022/11/01 19:22:38;;;;;;;10.50;5.47;;;18.50;57.60;;;;;;21087181;28;20052;-58
2022/11/01 19:32:39;;;;;;;9.82;5.20;;;18.30;57.80;;;;;;21087139;28;20066;-55
2022/11/01 19:42:41;;;;;;;11.85;5.45;;;18.20;57.90;;;;;;21084358;28;20108;-61
2022/11/01 19:52:43;;;;;;;9.48;5.53;;;18.10;57.90;;;;;;21084229;28;20044;-57
2022/11/01 20:02:50;;;;;;;23.13;18.65;;;18.10;58.10;;;;;;21082872;28;20083;-56
2022/11/01 20:12:52;;;;;;;11.07;6.00;;;17.90;58.50;;;;;;21082808;28;20512;-56
2022/11/01 20:22:54;;;;;;;12.40;7.15;;;17.70;59.00;;;;;;21081639;28;20488;-56
2022/11/01 20:32:55;;;;;;;15.23;6.65;;;17.60;59.30;;;;;;21082094;28;20082;-58
2022/11/01 20:42:57;;;;;;;11.45;9.32;;;17.60;59.80;;;;;;21080363;28;20089;-56
2022/11/01 20:52:58;;;;;;;8.55;5.18;;;17.50;60.40;;;;;;21079191;28;20492;-56
2022/11/01 21:03:10;;;;;;;6.20;4.05;;;17.40;60.80;;;;;;21079715;28;20184;-56
2022/11/01 21:13:19;;;;;;;7.00;4.22;;;17.20;60.70;;;;;;21079087;28;20455;-56
2022/11/01 21:23:34;;;;;;;13.35;5.30;;;17.20;61.00;;;;;;21081634;28;20048;-57
2022/11/01 21:33:36;;;;;;;;;;;17.10;61.40;;;;;;21095528;28;20478;-59
2022/11/01 21:43:38;;;;;;;7.30;4.70;;;16.90;61.60;;;;;;21094889;28;19920;-59
2022/11/01 21:53:40;;;;;;;4.78;3.13;;;16.80;62.30;;;;;;21092800;28;20044;-59
2022/11/01 22:03:41;;;;;;;7.88;3.28;;;16.70;63.00;;;;;;21092254;28;20381;-58
2022/11/01 22:13:43;;;;;;;5.13;2.95;;;16.40;63.80;;;;;;21091048;28;20044;-60
2022/11/01 22:23:44;;;;;;;6.75;3.80;;;16.20;64.60;;;;;;21091347;28;20048;-59
2022/11/01 22:33:46;;;;;;;8.18;2.88;;;16.10;65.00;;;;;;21089306;28;20089;-65
2022/11/01 22:43:48;;;;;;;4.22;3.03;;;16.00;65.40;;;;;;21089573;28;20055;-58
2022/11/01 22:53:57;;;;;;;5.53;2.80;;;15.80;65.90;;;;;;21087697;28;20044;-63
2022/11/01 23:03:59;;;;;;;5.15;3.17;;;15.50;66.90;;;;;;21087416;28;20048;-59
2022/11/01 23:24:56;;;;;;;4.03;3.08;;;15.40;67.20;;;;;;20665362;28;20085;-57
2022/11/01 23:35:15;;;;;;;4.50;3.20;;;15.30;67.80;;;;;;20664841;28;20050;-56
2022/11/01 23:45:35;;;;;;;6.13;3.58;;;15.20;68.00;;;;;;20664070;28;20499;-57
2022/11/01 23:55:48;;;;;;;5.75;3.38;;;15.10;68.30;;;;;;20764844;28;20048;-56
